Time;durP1;ratioP1;P1;durP2;ratioP2;P2;SDS_P1;SDS_P2;PMS_P1;PMS_P2;Temp;Humidity;BMP_temperature;BMP_pressure;BME280_temperature;BME280_humidity;BME280_pressure;Samples;Min_cycle;Max_cycle;Signal;HPM_P1;HPM_P2
2021/03/31 00:00:36;;;;;;;42.90;33.90;;;;;;;9.56;81.61;101146.42;115357;1199;103133;-79
2021/03/31 00:03:17;;;;;;;38.55;33.25;;;;;;;9.55;81.84;101149.92;115385;1199;103047;-80
2021/03/31 00:05:45;;;;;;;45.60;36.47;;;;;;;9.53;81.89;101149.08;115542;1200;103027;-80
2021/03/31 00:08:16;;;;;;;47.23;36.43;;;;;;;9.55;81.92;101146.45;115351;1196;103011;-79
2021/03/31 00:10:49;;;;;;;44.67;35.83;;;;;;;9.55;82.03;101139.50;115285;1199;103146;-79
2021/03/31 00:13:19;;;;;;;45.13;34.53;;;;;;;9.55;82.08;101139.50;115279;1198;103075;-80
2021/03/31 00:15:46;;;;;;;46.87;36.07;;;;;;;9.55;82.06;101136.03;115535;1199;103053;-80
2021/03/31 00:18:16;;;;;;;41.40;34.30;;;;;;;9.55;82.02;101129.08;115545;1198;103056;-79
2021/03/31 00:20:44;;;;;;;45.43;35.03;;;;;;;9.55;82.00;101134.30;115340;1196;103287;-79
2021/03/31 00:23:13;;;;;;;47.20;35.23;;;;;;;9.56;82.08;101136.02;115358;1197;103093;-79
2021/03/31 00:25:41;;;;;;;39.80;31.77;;;;;;;9.54;82.02;101129.97;115401;1196;103082;-80
2021/03/31 00:28:10;;;;;;;42.23;32.33;;;;;;;9.52;82.19;101131.73;115431;1196;102973;-80
2021/03/31 00:30:38;;;;;;;42.03;32.73;;;;;;;9.52;82.20;101129.13;115627;1197;103009;-79
2021/03/31 00:33:08;;;;;;;42.33;32.80;;;;;;;9.52;82.11;101131.73;115345;1199;103027;-81
2021/03/31 00:35:35;;;;;;;42.37;32.90;;;;;;;9.51;82.20;101124.77;115554;1197;103277;-80
2021/03/31 00:38:06;;;;;;;40.63;31.73;;;;;;;9.48;82.14;101124.82;115383;1200;103018;-80
2021/03/31 00:40:36;;;;;;;42.67;31.70;;;;;;;9.46;82.02;101123.13;115389;1199;103078;-80
2021/03/31 00:43:05;;;;;;;42.07;32.40;;;;;;;9.45;82.10;101114.45;115361;1198;103082;-79
2021/03/31 00:45:32;;;;;;;44.50;33.63;;;;;;;9.44;82.25;101115.34;115409;1196;103021;-79
2021/03/31 00:48:06;;;;;;;42.67;32.07;;;;;;;9.44;82.27;101117.94;115400;1200;102434;-79
2021/03/31 00:50:34;;;;;;;43.83;32.17;;;;;;;9.44;82.29;101120.55;115571;1198;103178;-80
2021/03/31 00:53:03;;;;;;;40.00;30.67;;;;;;;9.44;82.27;101119.69;115387;1196;103191;-79
2021/03/31 00:55:31;;;;;;;41.23;32.30;;;;;;;9.41;82.18;101115.38;115379;1199;105545;-80
2021/03/31 00:57:59;;;;;;;43.80;32.17;;;;;;;9.40;82.15;101111.06;115382;1199;103006;-79
2021/03/31 01:00:26;;;;;;;42.40;33.17;;;;;;;9.38;82.29;101110.22;115381;1199;103207;-79
2021/03/31 01:02:53;;;;;;;38.33;30.20;;;;;;;9.38;82.42;101107.62;115543;1199;103095;-80
2021/03/31 01:05:28;;;;;;;39.37;31.70;;;;;;;9.37;82.42;101111.11;115341;1200;103006;-79
2021/03/31 01:07:56;;;;;;;39.30;31.37;;;;;;;9.36;82.51;101109.39;115368;1198;101834;-80
2021/03/31 01:10:32;;;;;;;41.03;31.37;;;;;;;9.35;82.53;101108.53;115352;1199;101921;-79
2021/03/31 01:13:06;;;;;;;45.07;31.87;;;;;;;9.36;82.42;101115.45;115550;1200;103111;-79
2021/03/31 01:15:56;;;;;;;42.07;30.87;;;;;;;9.34;82.41;101111.16;115372;1196;102986;-79
2021/03/31 01:18:36;;;;;;;36.35;29.50;;;;;;;9.31;82.37;101106.82;115094;1203;103069;-79
2021/03/31 01:21:30;;;;;;;37.70;30.30;;;;;;;9.29;82.41;101107.72;115070;1202;103172;-79
2021/03/31 01:24:13;;;;;;;37.20;30.30;;;;;;;9.27;82.45;101110.35;115262;1203;103156;-80
2021/03/31 01:26:48;;;;;;;44.70;33.27;;;;;;;9.25;82.26;101111.25;115299;1200;102125;-79
2021/03/31 01:29:18;;;;;;;40.25;32.50;;;;;;;9.24;82.38;101106.94;115219;1202;102813;-79
2021/03/31 01:31:56;;;;;;;42.40;31.25;;;;;;;9.22;82.46;101111.30;115267;1200;103108;-79
2021/03/31 01:34:44;;;;;;;42.65;31.65;;;;;;;9.20;82.47;101115.67;115333;1201;103062;-80
2021/03/31 01:37:35;;;;;;;42.63;32.97;;;;;;;9.17;82.57;101110.51;115252;1202;102998;-79
2021/03/31 01:40:07;;;;;;;39.25;30.00;;;;;;;9.13;82.38;101106.20;115107;1202;103007;-79
2021/03/31 01:42:38;;;;;;;38.60;30.37;;;;;;;9.12;82.46;101112.28;115117;1202;103209;-79
2021/03/31 01:45:08;;;;;;;39.35;30.20;;;;;;;9.08;82.50;101104.52;115101;1202;103063;-80
2021/03/31 01:47:40;;;;;;;39.73;30.67;;;;;;;9.05;82.52;101101.95;115183;1201;103047;-80
2021/03/31 01:50:08;;;;;;;41.87;30.43;;;;;;;9.01;82.60;101096.82;115138;1200;103091;-79
2021/03/31 01:52:37;;;;;;;39.90;31.20;;;;;;;8.98;82.63;101092.52;115162;1202;103194;-80
2021/03/31 01:55:06;;;;;;;44.53;32.63;;;;;;;8.96;82.67;101082.98;115311;1199;102874;-80
2021/03/31 01:57:34;;;;;;;43.43;32.93;;;;;;;8.95;82.84;101096.88;115402;1200;103036;-79
2021/03/31 02:00:07;;;;;;;44.20;32.10;;;;;;;8.93;82.76;101099.50;115475;1198;103161;-79
2021/03/31 02:02:41;;;;;;;46.45;33.63;;;;;;;8.92;82.88;101096.91;115372;1199;100808;-78
2021/03/31 02:05:11;;;;;;;46.90;33.20;;;;;;;8.90;82.73;101093.47;115354;1198;103115;-78
2021/03/31 02:07:40;;;;;;;41.60;32.33;;;;;;;8.88;82.89;101096.09;115432;1198;103113;-79
2021/03/31 02:10:12;;;;;;;50.17;35.53;;;;;;;8.86;83.08;101082.25;115364;1198;103108;-79
2021/03/31 02:12:40;;;;;;;49.13;35.87;;;;;;;8.87;83.25;101089.17;115328;1200;102988;-78
2021/03/31 02:15:13;;;;;;;47.03;36.13;;;;;;;8.85;83.23;101083.13;115397;1199;103481;-78
2021/03/31 02:17:41;;;;;;;45.73;35.40;;;;;;;8.85;82.99;101095.27;115400;1197;103015;-79
2021/03/31 02:20:09;;;;;;;46.87;34.70;;;;;;;8.84;83.34;101089.21;115565;1198;102996;-78
2021/03/31 02:22:38;;;;;;;45.53;34.63;;;;;;;8.82;83.12;101093.58;115428;1199;103102;-79
2021/03/31 02:25:07;;;;;;;41.80;31.27;;;;;;;8.81;83.08;101088.39;115436;1198;103143;-79
2021/03/31 02:27:36;;;;;;;44.73;32.43;;;;;;;8.78;83.05;101094.47;115505;1198;102071;-79
2021/03/31 02:30:08;;;;;;;44.73;33.20;;;;;;;8.75;82.80;101089.30;115370;1199;103197;-80
2021/03/31 02:32:37;;;;;;;45.17;34.80;;;;;;;8.73;83.11;101088.46;115373;1198;102989;-80
2021/03/31 02:35:06;;;;;;;48.40;33.60;;;;;;;8.71;83.07;101090.22;115423;1198;103065;-79
2021/03/31 02:37:38;;;;;;;42.20;32.33;;;;;;;8.70;83.26;101086.77;115518;1196;102989;-79
2021/03/31 02:40:08;;;;;;;48.90;34.37;;;;;;;8.68;83.20;101095.46;115385;1199;103107;-79
2021/03/31 02:42:37;;;;;;;45.10;33.40;;;;;;;8.65;83.41;101088.56;115489;1199;103066;-79
2021/03/31 02:45:06;;;;;;;49.25;34.90;;;;;;;8.64;83.52;101089.44;115368;1197;102960;-79
2021/03/31 02:47:37;;;;;;;47.77;34.27;;;;;;;8.65;83.36;101091.16;115433;1196;103140;-79
2021/03/31 02:50:06;;;;;;;44.70;34.57;;;;;;;8.63;83.38;101085.12;115353;1196;102814;-79
2021/03/31 02:52:35;;;;;;;49.03;36.00;;;;;;;8.62;83.63;101092.94;115356;1199;103162;-78
2021/03/31 02:55:06;;;;;;;57.80;37.37;;;;;;;8.61;83.43;101080.78;115362;1199;102996;-78
2021/03/31 02:57:36;;;;;;;53.73;38.47;;;;;;;8.62;83.64;101087.73;115339;1198;103149;-79
2021/03/31 03:00:08;;;;;;;50.50;35.77;;;;;;;8.60;83.36;101079.92;115609;1199;102921;-79
2021/03/31 03:02:37;;;;;;;46.77;34.63;;;;;;;8.59;83.58;101082.55;115393;1200;103124;-78
2021/03/31 03:05:07;;;;;;;49.67;35.67;;;;;;;8.57;83.44;101084.30;115403;1199;101235;-79
2021/03/31 03:07:36;;;;;;;48.47;34.37;;;;;;;8.55;83.38;101084.32;115408;1196;103439;-79
2021/03/31 03:10:06;;;;;;;48.77;34.57;;;;;;;8.53;83.52;101077.42;115595;1197;103027;-80
2021/03/31 03:12:42;;;;;;;48.50;35.60;;;;;;;8.51;83.80;101077.44;115364;1196;103111;-79
2021/03/31 03:15:13;;;;;;;53.13;38.20;;;;;;;8.51;83.86;101073.98;115379;1196;103488;-78
2021/03/31 03:17:41;;;;;;;52.17;36.80;;;;;;;8.48;83.66;101070.53;115393;1196;103104;-79
2021/03/31 03:20:10;;;;;;;49.77;35.13;;;;;;;8.47;83.50;101068.81;115338;1197;102449;-79
2021/03/31 03:22:39;;;;;;;53.00;37.57;;;;;;;8.48;83.62;101067.94;115333;1199;102982;-79
2021/03/31 03:25:12;;;;;;;56.07;38.73;;;;;;;8.48;83.76;101065.34;115442;1196;103053;-79
2021/03/31 03:27:45;;;;;;;54.05;37.60;;;;;;;8.48;83.74;101073.13;115372;1198;103002;-80
2021/03/31 03:30:15;;;;;;;53.27;37.57;;;;;;;8.47;84.04;101063.61;115404;1196;103020;-80
2021/03/31 03:32:46;;;;;;;55.73;39.77;;;;;;;8.45;83.94;101060.17;115374;1199;103060;-79
2021/03/31 03:35:15;;;;;;;50.73;36.17;;;;;;;8.45;83.76;101064.52;115607;1199;102998;-79
2021/03/31 03:37:43;;;;;;;50.10;36.65;;;;;;;8.42;83.89;101060.17;115533;1197;103085;-79
2021/03/31 03:40:13;;;;;;;50.33;36.57;;;;;;;8.39;83.82;101055.02;115456;1196;103617;-80
2021/03/31 03:42:41;;;;;;;52.90;37.23;;;;;;;8.39;83.65;101067.16;115512;1197;103095;-79
2021/03/31 03:45:10;;;;;;;53.53;36.63;;;;;;;8.35;84.01;101061.13;115500;1196;102976;-80
2021/03/31 03:47:39;;;;;;;53.80;37.10;;;;;;;8.33;83.62;101060.25;115435;1199;103040;-79
2021/03/31 03:50:11;;;;;;;56.27;37.97;;;;;;;8.32;83.76;101055.94;115550;1196;103041;-79
2021/03/31 03:52:39;;;;;;;52.63;36.43;;;;;;;8.34;83.79;101066.34;115747;1196;104228;-80
2021/03/31 03:55:07;;;;;;;53.33;36.77;;;;;;;8.30;83.72;101060.29;115429;1199;101957;-79
2021/03/31 03:57:34;;;;;;;57.67;38.00;;;;;;;8.29;84.11;101050.77;115387;1200;103075;-79
2021/03/31 04:00:11;;;;;;;55.20;38.50;;;;;;;8.31;84.06;101053.36;115372;1199;103117;-80
2021/03/31 04:02:39;;;;;;;55.07;38.43;;;;;;;8.31;84.17;101055.95;115647;1199;102983;-79
2021/03/31 04:05:07;;;;;;;55.90;39.03;;;;;;;8.30;83.94;101055.09;115383;1200;102992;-79
2021/03/31 04:07:34;;;;;;;57.43;39.20;;;;;;;8.31;84.18;101059.41;115431;1196;103121;-79
2021/03/31 04:10:04;;;;;;;55.80;39.87;;;;;;;8.32;84.09;101053.34;115359;1197;103126;-79
2021/03/31 04:12:34;;;;;;;57.90;38.95;;;;;;;8.33;83.96;101057.66;115401;1196;103095;-80
2021/03/31 04:15:04;;;;;;;55.20;40.47;;;;;;;8.32;83.99;101057.67;115421;1199;102996;-79
2021/03/31 04:17:34;;;;;;;59.10;39.97;;;;;;;8.33;84.22;101059.39;115598;1196;102996;-79
2021/03/31 04:20:03;;;;;;;59.97;39.57;;;;;;;8.34;84.09;101049.02;115342;1199;103031;-79
2021/03/31 04:22:30;;;;;;;56.25;39.50;;;;;;;8.34;84.00;101056.81;115341;1199;102042;-79
2021/03/31 04:24:57;;;;;;;58.33;38.93;;;;;;;8.36;84.04;101065.45;115389;1199;103011;-79
2021/03/31 04:27:27;;;;;;;57.97;39.63;;;;;;;8.37;84.21;101064.57;115579;1196;103091;-79
2021/03/31 04:29:55;;;;;;;57.65;39.45;;;;;;;8.40;84.00;101061.08;115360;1196;103143;-80
2021/03/31 04:32:24;;;;;;;58.67;39.50;;;;;;;8.41;84.17;101057.59;115672;1196;103018;-78
2021/03/31 04:34:51;;;;;;;61.27;40.23;;;;;;;8.44;83.68;101061.05;115407;1199;103130;-79
2021/03/31 04:37:18;;;;;;;56.63;40.13;;;;;;;8.51;83.80;101059.23;115432;1199;103005;-79
2021/03/31 04:39:45;;;;;;;56.48;40.33;;;;;;;8.60;83.96;101060.86;115348;1200;103630;-79
2021/03/31 04:42:13;;;;;;;55.30;38.83;;;;;;;8.74;83.72;101058.97;115339;1199;102979;-79
2021/03/31 04:44:40;;;;;;;55.83;40.27;;;;;;;8.99;83.48;101063.02;115643;1196;101847;-79
2021/03/31 04:47:07;;;;;;;54.43;38.03;;;;;;;9.31;83.54;101059.96;115390;1199;103187;-78
2021/03/31 04:49:34;;;;;;;52.03;37.00;;;;;;;9.75;82.64;101055.00;115573;1196;103201;-78
2021/03/31 04:52:02;;;;;;;51.90;37.40;;;;;;;10.34;82.46;101055.75;115531;1199;103475;-78
2021/03/31 04:54:30;;;;;;;44.50;34.08;;;;;;;10.99;81.47;101051.86;115593;1198;103101;-79
2021/03/31 04:56:57;;;;;;;43.40;34.77;;;;;;;11.70;80.55;101058.98;115317;1199;103028;-79
2021/03/31 04:59:24;;;;;;;42.77;33.93;;;;;;;12.36;79.23;101063.42;115334;1199;103041;-79
2021/03/31 05:01:51;;;;;;;43.77;33.40;;;;;;;13.08;78.12;101059.65;115416;1200;103059;-79
2021/03/31 05:04:18;;;;;;;44.30;32.10;;;;;;;13.80;76.30;101066.17;115349;1198;103005;-79
2021/03/31 05:06:45;;;;;;;38.73;31.20;;;;;;;14.46;74.99;101056.13;115364;1200;101879;-79
2021/03/31 05:09:12;;;;;;;35.10;29.70;;;;;;;15.11;73.25;101051.09;115391;1196;103105;-78
2021/03/31 05:11:39;;;;;;;35.65;30.05;;;;;;;15.08;72.18;101059.09;115339;1196;103073;-78
2021/03/31 05:14:07;;;;;;;33.47;28.40;;;;;;;15.61;71.37;101048.27;115349;1196;103075;-78
2021/03/31 05:16:34;;;;;;;34.13;29.37;;;;;;;16.57;71.40;101048.63;115352;1197;103082;-78
2021/03/31 05:19:02;;;;;;;35.60;27.70;;;;;;;17.51;68.89;101046.89;115412;1196;103044;-79
2021/03/31 05:21:29;;;;;;;32.93;27.87;;;;;;;18.37;68.24;101040.01;115364;1200;103105;-78
2021/03/31 05:23:56;;;;;;;30.03;26.77;;;;;;;19.26;65.74;101044.05;115364;1199;103027;-79
2021/03/31 05:26:24;;;;;;;27.67;24.47;;;;;;;19.94;63.34;101039.30;115417;1199;102986;-79
2021/03/31 05:28:51;;;;;;;28.93;24.93;;;;;;;20.51;62.11;101042.95;115682;1199;103075;-80
2021/03/31 05:31:18;;;;;;;31.23;25.50;;;;;;;21.09;60.23;101046.43;115486;1200;103555;-79
2021/03/31 05:33:46;;;;;;;27.27;24.30;;;;;;;21.86;60.03;101043.19;115373;1198;103008;-79
2021/03/31 05:36:13;;;;;;;27.10;24.07;;;;;;;22.67;58.18;101043.00;115402;1198;103072;-80
2021/03/31 05:38:40;;;;;;;26.33;23.13;;;;;;;23.44;56.53;101033.05;115414;1199;103564;-81
2021/03/31 05:41:07;;;;;;;26.30;23.50;;;;;;;24.15;54.81;101036.64;115405;1199;103002;-79
2021/03/31 05:43:35;;;;;;;28.07;23.83;;;;;;;24.59;53.73;101031.41;115374;1196;102915;-81
2021/03/31 05:46:04;;;;;;;26.20;23.40;;;;;;;24.90;52.48;101028.98;115419;1196;103049;-80
2021/03/31 05:48:32;;;;;;;26.50;23.27;;;;;;;25.26;51.62;101036.73;115678;1196;103063;-80
2021/03/31 05:51:00;;;;;;;25.60;22.90;;;;;;;25.81;50.60;101034.04;115488;1199;102998;-80
2021/03/31 05:53:27;;;;;;;25.87;22.33;;;;;;;26.43;49.65;101042.13;115463;1199;102991;-81
2021/03/31 05:55:56;;;;;;;24.97;22.40;;;;;;;26.89;48.47;101035.42;115480;1199;103049;-81
2021/03/31 05:58:24;;;;;;;25.55;22.85;;;;;;;27.35;47.31;101037.56;115478;1198;103140;-80
2021/03/31 06:00:52;;;;;;;26.37;23.67;;;;;;;27.44;46.34;101035.02;115373;1199;102979;-80
2021/03/31 06:03:21;;;;;;;25.83;23.00;;;;;;;27.81;45.28;101029.86;115428;1197;103136;-80
2021/03/31 06:05:48;;;;;;;27.97;22.70;;;;;;;28.11;43.95;101027.02;115457;1196;102989;-80
2021/03/31 06:08:15;;;;;;;27.70;22.83;;;;;;;28.36;43.67;101027.41;115465;1197;103040;-80
2021/03/31 06:10:43;;;;;;;26.63;23.70;;;;;;;28.44;43.53;101014.13;115436;1198;103085;-81
2021/03/31 06:13:13;;;;;;;26.17;23.20;;;;;;;28.49;42.53;101018.05;115435;1199;102992;-81
2021/03/31 06:15:44;;;;;;;25.60;23.03;;;;;;;28.28;42.27;101020.95;115503;1197;103018;-80
2021/03/31 06:18:14;;;;;;;24.60;22.00;;;;;;;28.07;41.56;101019.41;115446;1198;103035;-80
2021/03/31 06:20:59;;;;;;;25.40;22.53;;;;;;;27.80;40.77;101025.48;115432;1200;103041;-80
2021/03/31 06:26:39;;;;;;;25.80;23.10;;;;;;;27.26;41.27;101027.66;115497;1199;102883;-81
2021/03/31 06:29:08;;;;;;;27.00;24.13;;;;;;;27.48;41.67;101018.55;115612;1196;102980;-82
2021/03/31 06:31:47;;;;;;;25.67;22.30;;;;;;;27.81;41.00;101019.14;115620;1196;103242;-80
2021/03/31 06:34:22;;;;;;;25.93;23.23;;;;;;;27.86;40.70;101024.94;115388;1198;103118;-81
2021/03/31 06:36:52;;;;;;;25.40;22.10;;;;;;;28.07;39.90;101016.73;115564;1196;103501;-81
2021/03/31 06:39:30;;;;;;;25.57;22.87;;;;;;;28.31;40.00;101024.33;115445;1199;104059;-80
2021/03/31 06:42:00;;;;;;;28.50;23.40;;;;;;;28.44;39.15;101024.86;115566;1196;102972;-80
2021/03/31 06:44:39;;;;;;;24.87;22.20;;;;;;;28.54;39.28;101022.98;115397;1196;101551;-79
2021/03/31 06:47:14;;;;;;;24.77;21.80;;;;;;;28.30;38.05;101020.80;115609;1198;103060;-81
2021/03/31 06:49:41;;;;;;;27.67;23.27;;;;;;;27.84;38.82;101011.68;115399;1199;103597;-79
2021/03/31 06:52:10;;;;;;;25.27;22.57;;;;;;;27.89;38.61;101019.29;115329;1198;103124;-79
2021/03/31 06:54:47;;;;;;;24.97;21.87;;;;;;;28.03;38.80;101016.17;115369;1200;103098;-80
2021/03/31 06:57:27;;;;;;;24.67;21.87;;;;;;;28.36;38.42;101012.16;115560;1196;101940;-80
2021/03/31 07:00:13;;;;;;;24.45;22.00;;;;;;;28.67;37.94;101015.45;115404;1199;103120;-79
2021/03/31 07:02:43;;;;;;;25.35;22.20;;;;;;;28.83;37.50;101009.45;115370;1199;103472;-79
2021/03/31 07:05:11;;;;;;;27.00;21.60;;;;;;;28.79;36.89;101008.91;115373;1198;103203;-79
2021/03/31 07:07:44;;;;;;;25.95;21.65;;;;;;;28.44;37.14;101008.77;115310;1200;103776;-79
2021/03/31 07:10:15;;;;;;;25.53;22.27;;;;;;;28.06;37.59;101007.84;115282;1199;103073;-79
2021/03/31 07:12:46;;;;;;;25.17;22.27;;;;;;;27.93;37.86;101001.92;115288;1199;103091;-78
2021/03/31 07:15:15;;;;;;;27.23;21.80;;;;;;;27.80;37.54;101004.05;115302;1196;103066;-79
2021/03/31 07:18:03;;;;;;;24.77;21.23;;;;;;;27.45;37.37;101010.77;115518;1199;103028;-79
2021/03/31 07:20:31;;;;;;;23.23;20.73;;;;;;;27.32;37.88;101004.86;115369;1199;102854;-80
2021/03/31 07:23:01;;;;;;;24.17;21.57;;;;;;;26.95;37.82;101007.28;115350;1199;102967;-80
2021/03/31 07:25:28;;;;;;;23.90;21.40;;;;;;;26.76;37.97;101005.39;115316;1200;103162;-80
2021/03/31 07:27:57;;;;;;;25.80;21.63;;;;;;;26.73;38.00;101006.48;115299;1199;103052;-80
2021/03/31 07:30:27;;;;;;;25.87;21.50;;;;;;;26.91;38.66;101006.69;115401;1199;102982;-80
2021/03/31 07:33:22;;;;;;;24.00;20.67;;;;;;;26.62;37.78;101011.09;115447;1200;102957;-80
2021/03/31 07:35:50;;;;;;;23.27;20.67;;;;;;;26.49;37.97;101011.31;115410;1199;102995;-79
2021/03/31 07:38:21;;;;;;;26.13;20.57;;;;;;;26.69;38.35;101009.57;115345;1199;103035;-80
2021/03/31 07:40:50;;;;;;;27.27;21.30;;;;;;;26.97;38.49;101006.16;115315;1199;103086;-80
2021/03/31 07:43:26;;;;;;;25.60;19.87;;;;;;;27.54;37.84;100999.23;115398;1199;103025;-80
2021/03/31 07:46:00;;;;;;;23.20;20.73;;;;;;;28.19;37.65;101003.02;115391;1200;103063;-80
2021/03/31 07:48:29;;;;;;;25.60;19.83;;;;;;;28.74;36.82;101004.98;115476;1198;103057;-81
2021/03/31 07:50:57;;;;;;;25.03;20.47;;;;;;;28.99;35.84;101003.47;115426;1198;102996;-80
2021/03/31 07:53:24;;;;;;;23.60;19.67;;;;;;;29.20;36.18;101004.03;115363;1199;103082;-80
2021/03/31 07:55:55;;;;;;;21.40;18.37;;;;;;;29.79;35.75;100997.23;115413;1196;101569;-80
2021/03/31 07:58:28;;;;;;;23.70;19.47;;;;;;;30.57;35.73;100999.98;115441;1199;103024;-80
2021/03/31 08:01:04;;;;;;;22.60;19.00;;;;;;;31.15;35.03;100991.98;115513;1196;103111;-80
2021/03/31 08:03:34;;;;;;;20.48;18.10;;;;;;;31.56;34.14;100995.61;115382;1200;101832;-80
2021/03/31 08:06:04;;;;;;;24.75;19.60;;;;;;;32.02;33.39;100997.84;115333;1199;103236;-80
2021/03/31 08:08:52;;;;;;;23.63;19.83;;;;;;;32.02;32.82;100995.98;115686;1196;103171;-80
2021/03/31 08:11:43;;;;;;;21.75;18.70;;;;;;;31.80;32.58;100992.13;115398;1196;103055;-77
2021/03/31 08:14:15;;;;;;;24.77;20.50;;;;;;;31.31;33.24;101001.15;115507;1200;103098;-78
2021/03/31 08:16:51;;;;;;;22.17;18.63;;;;;;;30.96;32.68;101000.34;115322;1199;103095;-76
2021/03/31 08:19:22;;;;;;;20.60;18.37;;;;;;;30.57;33.03;101006.22;115262;1199;103081;-76
2021/03/31 08:21:52;;;;;;;24.43;19.70;;;;;;;30.24;33.21;100998.95;115516;1196;102977;-76
2021/03/31 08:24:40;;;;;;;23.80;19.20;;;;;;;29.83;33.42;101008.55;115415;1200;103085;-76
2021/03/31 08:27:08;;;;;;;23.10;17.45;;;;;;;29.40;33.88;101002.90;115571;1196;103006;-76
2021/03/31 08:29:35;;;;;;;21.77;18.00;;;;;;;28.96;34.08;101009.14;115289;1196;103052;-75
2021/03/31 08:32:06;;;;;;;21.20;17.57;;;;;;;28.64;34.66;101010.38;115542;1196;103072;-76
2021/03/31 08:34:35;;;;;;;21.70;18.30;;;;;;;28.55;34.89;101000.55;115551;1196;103060;-75
2021/03/31 08:37:05;;;;;;;24.07;18.43;;;;;;;28.59;34.76;101002.78;115294;1196;102993;-76
2021/03/31 08:39:33;;;;;;;22.60;17.00;;;;;;;28.34;34.29;101002.56;115322;1198;102781;-75
2021/03/31 08:42:03;;;;;;;22.27;17.33;;;;;;;28.04;34.60;101001.78;115596;1200;103011;-76
2021/03/31 08:44:36;;;;;;;21.60;17.90;;;;;;;28.27;35.63;101000.48;115475;1199;103184;-75
2021/03/31 08:47:18;;;;;;;20.47;18.23;;;;;;;28.71;34.98;100995.36;115374;1199;103057;-76
2021/03/31 08:49:48;;;;;;;22.87;18.60;;;;;;;29.04;35.23;100995.80;115277;1197;104204;-76
2021/03/31 08:52:20;;;;;;;21.50;17.03;;;;;;;28.95;34.34;100991.34;115395;1199;101627;-75
2021/03/31 08:54:54;;;;;;;20.37;16.33;;;;;;;28.68;34.62;100987.61;115293;1199;101338;-75
2021/03/31 08:57:23;;;;;;;26.80;16.40;;;;;;;28.59;34.27;100994.73;115518;1199;103028;-77
2021/03/31 08:59:57;;;;;;;22.17;17.13;;;;;;;28.59;35.06;100996.56;115549;1199;102902;-76
2021/03/31 09:02:28;;;;;;;19.27;15.90;;;;;;;28.71;34.43;100989.99;115267;1200;103481;-75
2021/03/31 09:05:04;;;;;;;22.23;15.90;;;;;;;28.90;34.46;100983.71;115572;1199;103081;-75
2021/03/31 09:07:32;;;;;;;20.07;16.33;;;;;;;29.13;34.95;100985.00;115335;1196;103038;-78
2021/03/31 09:10:00;;;;;;;19.60;15.67;;;;;;;29.38;34.54;100987.93;115296;1199;103036;-77
2021/03/31 09:12:29;;;;;;;17.93;15.80;;;;;;;29.83;34.60;100984.34;115255;1199;103060;-77
2021/03/31 09:14:59;;;;;;;17.03;14.47;;;;;;;30.29;33.94;100985.86;115310;1198;103136;-77
2021/03/31 09:17:28;;;;;;;20.60;15.17;;;;;;;30.64;33.08;100983.05;115294;1197;102989;-76
2021/03/31 09:19:58;;;;;;;19.17;13.80;;;;;;;30.61;32.44;100986.07;115285;1200;103124;-76
2021/03/31 09:22:29;;;;;;;15.17;12.90;;;;;;;30.67;32.51;100971.95;115252;1199;103242;-77
2021/03/31 09:25:00;;;;;;;16.37;11.83;;;;;;;30.72;32.14;100976.03;115556;1196;102797;-77
2021/03/31 09:27:47;;;;;;;15.10;12.70;;;;;;;30.80;31.95;100967.97;115438;1197;103098;-77
2021/03/31 09:30:16;;;;;;;15.87;11.90;;;;;;;30.91;31.88;100967.67;115560;1196;103008;-77
2021/03/31 09:32:55;;;;;;;12.50;9.60;;;;;;;30.71;30.92;100966.27;115556;1200;103027;-76
2021/03/31 09:35:24;;;;;;;13.87;11.27;;;;;;;30.63;31.71;100962.52;115254;1196;103188;-76
2021/03/31 09:37:54;;;;;;;25.60;11.43;;;;;;;30.89;31.76;100956.23;115610;1196;102806;-76
2021/03/31 09:40:36;;;;;;;14.60;11.80;;;;;;;31.28;31.41;100955.67;115258;1199;103027;-78
2021/03/31 09:43:08;;;;;;;15.87;12.20;;;;;;;31.53;31.90;100957.36;115430;1196;103082;-75
2021/03/31 09:45:36;;;;;;;14.47;11.93;;;;;;;31.68;31.44;100958.38;115263;1199;103113;-76
2021/03/31 09:48:04;;;;;;;14.07;11.30;;;;;;;31.78;30.71;100951.00;115281;1200;103008;-76
2021/03/31 09:50:35;;;;;;;18.27;10.93;;;;;;;32.05;31.26;100957.02;115331;1196;103040;-76
2021/03/31 09:53:06;;;;;;;14.90;10.50;;;;;;;32.33;30.32;100949.41;115355;1200;104381;-76
2021/03/31 09:55:37;;;;;;;12.70;10.57;;;;;;;32.15;29.74;100955.83;115323;1199;103082;-77
2021/03/31 09:58:04;;;;;;;16.60;10.00;;;;;;;32.17;30.14;100944.86;115475;1199;103034;-77
2021/03/31 10:00:37;;;;;;;11.40;8.97;;;;;;;32.19;29.36;100942.83;115482;1200;103156;-77
2021/03/31 10:03:06;;;;;;;9.97;8.67;;;;;;;32.00;29.42;100941.35;115464;1199;102845;-77
2021/03/31 10:05:34;;;;;;;9.90;8.70;;;;;;;31.97;29.14;100933.60;115573;1198;103038;-79
2021/03/31 10:08:06;;;;;;;9.73;7.87;;;;;;;31.76;29.15;100938.67;115260;1199;102171;-77
2021/03/31 10:10:41;;;;;;;10.15;8.10;;;;;;;31.77;29.68;100932.26;115552;1196;103002;-77
2021/03/31 10:13:09;;;;;;;10.50;7.67;;;;;;;31.61;29.08;100922.33;115371;1196;103133;-76
2021/03/31 10:15:38;;;;;;;10.20;7.83;;;;;;;31.48;29.58;100928.22;115328;1196;103124;-77
2021/03/31 10:18:12;;;;;;;10.47;7.37;;;;;;;31.51;29.81;100918.95;115328;1199;103223;-76
2021/03/31 10:20:46;;;;;;;9.70;7.33;;;;;;;31.52;29.56;100924.16;115330;1199;103056;-76
2021/03/31 10:23:34;;;;;;;9.10;7.35;;;;;;;31.47;29.85;100917.60;115287;1199;103433;-78
2021/03/31 10:26:29;;;;;;;8.17;7.03;;;;;;;31.32;29.85;100919.28;115433;1196;103111;-78
2021/03/31 10:28:59;;;;;;;11.27;7.80;;;;;;;31.49;30.18;100912.88;115231;1200;103030;-77
2021/03/31 10:31:44;;;;;;;12.13;9.53;;;;;;;31.54;30.09;100905.95;115300;1199;103002;-76
2021/03/31 10:34:18;;;;;;;10.13;7.50;;;;;;;31.50;29.51;100909.17;115258;1196;103028;-77
2021/03/31 10:48:55;;;;;;;12.33;9.27;;;;;;;30.89;29.92;100892.43;115579;1196;102995;-77
2021/03/31 10:51:32;;;;;;;11.93;8.43;;;;;;;30.70;30.38;100897.23;115281;1196;103437;-78
2021/03/31 10:56:26;;;;;;;11.70;7.93;;;;;;;30.31;30.40;100889.66;115324;1196;103405;-77
2021/03/31 10:58:53;;;;;;;10.77;8.37;;;;;;;30.05;30.78;100890.56;115535;1196;104293;-78
2021/03/31 11:01:21;;;;;;;11.27;8.87;;;;;;;29.80;30.97;100883.30;115287;1196;103082;-76
2021/03/31 11:03:48;;;;;;;11.17;8.67;;;;;;;29.52;31.10;100890.67;115573;1197;103018;-77
2021/03/31 11:06:15;;;;;;;9.20;7.33;;;;;;;29.22;31.28;100881.15;115507;1198;103469;-77
2021/03/31 11:08:42;;;;;;;12.13;8.20;;;;;;;29.04;31.57;100877.63;115552;1196;103129;-76
2021/03/31 11:11:10;;;;;;;10.33;7.40;;;;;;;28.84;31.78;100867.00;115526;1196;103149;-77
2021/03/31 11:13:38;;;;;;;12.35;8.85;;;;;;;28.68;32.09;100865.98;115359;1199;103027;-78
2021/03/31 11:16:08;;;;;;;14.40;7.90;;;;;;;28.48;32.55;100870.63;115371;1196;102999;-76
2021/03/31 11:21:44;;;;;;;13.63;10.13;;;;;;;27.88;33.28;100862.11;115319;1196;102845;-78
2021/03/31 11:26:39;;;;;;;10.93;8.53;;;;;;;27.58;33.82;100855.09;115325;1194;103024;-77
2021/03/31 11:29:06;;;;;;;11.67;8.43;;;;;;;27.46;33.46;100846.36;115518;1199;103028;-77
2021/03/31 11:31:33;;;;;;;10.83;8.93;;;;;;;27.32;33.73;100854.86;115383;1199;103156;-76
2021/03/31 11:34:00;;;;;;;10.60;7.57;;;;;;;27.24;33.94;100842.17;115532;1196;103104;-77
2021/03/31 11:36:28;;;;;;;13.30;9.43;;;;;;;27.08;34.06;100839.21;115576;1199;103137;-77
2021/03/31 11:38:55;;;;;;;10.43;8.50;;;;;;;26.84;33.91;100839.61;115502;1199;102976;-76